sensor_id;sensor_type;location;lat;lon;timestamp;P1;durP1;ratioP1;P2;durP2;ratioP2
57663;SDS011;43493;53.098;6.064;2022-12-01T00:01:09;102.55;;;47.75;;
57663;SDS011;43493;53.098;6.064;2022-12-01T00:03:35;104.03;;;47.63;;
57663;SDS011;43493;53.098;6.064;2022-12-01T00:06:18;107.50;;;47.67;;
57663;SDS011;43493;53.098;6.064;2022-12-01T00:08:46;103.93;;;48.50;;
57663;SDS011;43493;53.098;6.064;2022-12-01T00:11:32;106.40;;;47.70;;
57663;SDS011;43493;53.098;6.064;2022-12-01T00:13:59;106.83;;;46.03;;
57663;SDS011;43493;53.098;6.064;2022-12-01T00:16:25;104.70;;;45.40;;
57663;SDS011;43493;53.098;6.064;2022-12-01T00:18:51;104.47;;;46.17;;
57663;SDS011;43493;53.098;6.064;2022-12-01T00:21:18;118.65;;;50.42;;
57663;SDS011;43493;53.098;6.064;2022-12-01T00:23:46;109.60;;;46.17;;
57663;SDS011;43493;53.098;6.064;2022-12-01T00:26:14;110.70;;;48.67;;
57663;SDS011;43493;53.098;6.064;2022-12-01T00:28:40;104.53;;;48.60;;
57663;SDS011;43493;53.098;6.064;2022-12-01T00:31:07;116.65;;;49.95;;
57663;SDS011;43493;53.098;6.064;2022-12-01T00:33:33;99.13;;;46.60;;
57663;SDS011;43493;53.098;6.064;2022-12-01T00:35:59;108.23;;;48.90;;
57663;SDS011;43493;53.098;6.064;2022-12-01T00:38:25;102.27;;;47.17;;
57663;SDS011;43493;53.098;6.064;2022-12-01T00:40:51;114.13;;;49.58;;
57663;SDS011;43493;53.098;6.064;2022-12-01T00:43:17;102.70;;;48.17;;
57663;SDS011;43493;53.098;6.064;2022-12-01T00:45:43;110.83;;;49.83;;
57663;SDS011;43493;53.098;6.064;2022-12-01T00:48:08;102.67;;;47.87;;
57663;SDS011;43493;53.098;6.064;2022-12-01T00:50:34;104.83;;;47.90;;
57663;SDS011;43493;53.098;6.064;2022-12-01T00:53:00;95.30;;;46.17;;
57663;SDS011;43493;53.098;6.064;2022-12-01T00:55:26;99.23;;;44.97;;
57663;SDS011;43493;53.098;6.064;2022-12-01T00:57:51;89.83;;;44.73;;
57663;SDS011;43493;53.098;6.064;2022-12-01T01:00:17;100.33;;;44.57;;
57663;SDS011;43493;53.098;6.064;2022-12-01T01:02:43;102.23;;;48.93;;
57663;SDS011;43493;53.098;6.064;2022-12-01T01:05:09;101.57;;;45.97;;
57663;SDS011;43493;53.098;6.064;2022-12-01T01:07:34;104.03;;;47.37;;
57663;SDS011;43493;53.098;6.064;2022-12-01T01:10:01;103.10;;;45.80;;
57663;SDS011;43493;53.098;6.064;2022-12-01T01:12:27;95.77;;;46.03;;
57663;SDS011;43493;53.098;6.064;2022-12-01T01:14:52;97.67;;;45.67;;
57663;SDS011;43493;53.098;6.064;2022-12-01T01:17:18;97.57;;;43.73;;
57663;SDS011;43493;53.098;6.064;2022-12-01T01:19:44;100.50;;;46.60;;
57663;SDS011;43493;53.098;6.064;2022-12-01T01:22:10;90.60;;;45.47;;
57663;SDS011;43493;53.098;6.064;2022-12-01T01:24:36;98.07;;;46.73;;
57663;SDS011;43493;53.098;6.064;2022-12-01T01:27:02;101.70;;;46.47;;
57663;SDS011;43493;53.098;6.064;2022-12-01T01:29:30;91.17;;;45.47;;
57663;SDS011;43493;53.098;6.064;2022-12-01T01:31:56;98.67;;;45.87;;
57663;SDS011;43493;53.098;6.064;2022-12-01T01:34:21;104.43;;;46.20;;
57663;SDS011;43493;53.098;6.064;2022-12-01T01:36:47;101.20;;;46.60;;
57663;SDS011;43493;53.098;6.064;2022-12-01T01:39:13;104.53;;;48.53;;
57663;SDS011;43493;53.098;6.064;2022-12-01T01:41:39;88.63;;;45.67;;
57663;SDS011;43493;53.098;6.064;2022-12-01T01:47:07;93.77;;;44.27;;
57663;SDS011;43493;53.098;6.064;2022-12-01T01:49:33;91.20;;;44.70;;
57663;SDS011;43493;53.098;6.064;2022-12-01T01:51:59;96.90;;;44.80;;
57663;SDS011;43493;53.098;6.064;2022-12-01T01:54:35;106.63;;;48.80;;
57663;SDS011;43493;53.098;6.064;2022-12-01T01:57:04;108.00;;;50.17;;
57663;SDS011;43493;53.098;6.064;2022-12-01T01:59:37;106.18;;;48.97;;
57663;SDS011;43493;53.098;6.064;2022-12-01T02:04:35;96.93;;;46.30;;
57663;SDS011;43493;53.098;6.064;2022-12-01T02:07:04;108.00;;;47.27;;
57663;SDS011;43493;53.098;6.064;2022-12-01T02:09:31;103.07;;;45.10;;
57663;SDS011;43493;53.098;6.064;2022-12-01T02:20:26;108.70;;;48.47;;
57663;SDS011;43493;53.098;6.064;2022-12-01T02:31:13;107.10;;;49.67;;
57663;SDS011;43493;53.098;6.064;2022-12-01T02:33:51;105.53;;;47.23;;
57663;SDS011;43493;53.098;6.064;2022-12-01T02:36:29;112.72;;;50.17;;
57663;SDS011;43493;53.098;6.064;2022-12-01T02:39:25;109.43;;;50.67;;
57663;SDS011;43493;53.098;6.064;2022-12-01T02:41:58;101.05;;;48.47;;
57663;SDS011;43493;53.098;6.064;2022-12-01T02:44:31;107.03;;;49.43;;
57663;SDS011;43493;53.098;6.064;2022-12-01T02:47:08;107.55;;;49.22;;
57663;SDS011;43493;53.098;6.064;2022-12-01T02:49:44;116.28;;;49.90;;
57663;SDS011;43493;53.098;6.064;2022-12-01T02:52:13;116.47;;;50.72;;
57663;SDS011;43493;53.098;6.064;2022-12-01T02:54:41;110.60;;;51.80;;
57663;SDS011;43493;53.098;6.064;2022-12-01T02:57:12;108.50;;;50.45;;
57663;SDS011;43493;53.098;6.064;2022-12-01T02:59:39;105.20;;;49.27;;
57663;SDS011;43493;53.098;6.064;2022-12-01T03:05:20;118.88;;;52.17;;
57663;SDS011;43493;53.098;6.064;2022-12-01T03:10:57;112.72;;;49.95;;
57663;SDS011;43493;53.098;6.064;2022-12-01T03:18:52;109.75;;;51.78;;
57663;SDS011;43493;53.098;6.064;2022-12-01T03:21:31;119.35;;;53.60;;
57663;SDS011;43493;53.098;6.064;2022-12-01T03:24:07;115.05;;;50.10;;
57663;SDS011;43493;53.098;6.064;2022-12-01T03:26:39;103.57;;;48.40;;
57663;SDS011;43493;53.098;6.064;2022-12-01T03:29:10;98.90;;;49.03;;
57663;SDS011;43493;53.098;6.064;2022-12-01T03:31:46;113.30;;;50.47;;
57663;SDS011;43493;53.098;6.064;2022-12-01T03:34:23;103.93;;;48.55;;
57663;SDS011;43493;53.098;6.064;2022-12-01T03:36:57;109.70;;;51.25;;
57663;SDS011;43493;53.098;6.064;2022-12-01T03:39:29;110.35;;;52.40;;
57663;SDS011;43493;53.098;6.064;2022-12-01T03:44:47;118.87;;;51.73;;
57663;SDS011;43493;53.098;6.064;2022-12-01T03:47:27;91.90;;;47.20;;
57663;SDS011;43493;53.098;6.064;2022-12-01T03:49:56;105.35;;;46.25;;
57663;SDS011;43493;53.098;6.064;2022-12-01T03:55:26;103.40;;;49.33;;
57663;SDS011;43493;53.098;6.064;2022-12-01T03:58:06;102.28;;;48.88;;
57663;SDS011;43493;53.098;6.064;2022-12-01T04:00:36;83.53;;;43.63;;
57663;SDS011;43493;53.098;6.064;2022-12-01T04:03:03;94.13;;;46.45;;
57663;SDS011;43493;53.098;6.064;2022-12-01T04:05:30;100.63;;;49.03;;
57663;SDS011;43493;53.098;6.064;2022-12-01T04:07:57;93.72;;;45.42;;
57663;SDS011;43493;53.098;6.064;2022-12-01T04:10:23;95.57;;;45.38;;
57663;SDS011;43493;53.098;6.064;2022-12-01T04:12:49;95.20;;;45.97;;
57663;SDS011;43493;53.098;6.064;2022-12-01T04:15:15;97.33;;;46.87;;
57663;SDS011;43493;53.098;6.064;2022-12-01T04:17:41;109.38;;;49.15;;
57663;SDS011;43493;53.098;6.064;2022-12-01T04:20:08;112.38;;;49.85;;
57663;SDS011;43493;53.098;6.064;2022-12-01T04:22:36;113.22;;;49.75;;
57663;SDS011;43493;53.098;6.064;2022-12-01T04:25:03;110.57;;;50.03;;
57663;SDS011;43493;53.098;6.064;2022-12-01T04:27:31;121.78;;;51.80;;
57663;SDS011;43493;53.098;6.064;2022-12-01T04:29:57;108.95;;;47.97;;
57663;SDS011;43493;53.098;6.064;2022-12-01T04:32:22;117.90;;;52.90;;
57663;SDS011;43493;53.098;6.064;2022-12-01T04:34:48;116.47;;;50.70;;
57663;SDS011;43493;53.098;6.064;2022-12-01T04:37:14;119.75;;;52.15;;
57663;SDS011;43493;53.098;6.064;2022-12-01T04:39:41;104.00;;;49.17;;
57663;SDS011;43493;53.098;6.064;2022-12-01T04:42:07;105.77;;;49.20;;
57663;SDS011;43493;53.098;6.064;2022-12-01T04:44:33;120.32;;;52.78;;
57663;SDS011;43493;53.098;6.064;2022-12-01T04:46:59;119.43;;;51.90;;
57663;SDS011;43493;53.098;6.064;2022-12-01T04:49:25;122.37;;;52.77;;
57663;SDS011;43493;53.098;6.064;2022-12-01T04:51:51;117.00;;;48.53;;
57663;SDS011;43493;53.098;6.064;2022-12-01T04:54:17;105.47;;;49.93;;
57663;SDS011;43493;53.098;6.064;2022-12-01T04:56:43;114.75;;;49.25;;
57663;SDS011;43493;53.098;6.064;2022-12-01T04:59:09;124.88;;;50.40;;
57663;SDS011;43493;53.098;6.064;2022-12-01T05:01:35;107.57;;;48.00;;
57663;SDS011;43493;53.098;6.064;2022-12-01T05:04:01;126.67;;;51.57;;
57663;SDS011;43493;53.098;6.064;2022-12-01T05:06:27;117.80;;;53.40;;
57663;SDS011;43493;53.098;6.064;2022-12-01T05:08:54;110.83;;;48.80;;
57663;SDS011;43493;53.098;6.064;2022-12-01T05:11:22;104.43;;;48.93;;
57663;SDS011;43493;53.098;6.064;2022-12-01T05:13:48;110.95;;;50.85;;
57663;SDS011;43493;53.098;6.064;2022-12-01T05:18:41;100.83;;;47.73;;
57663;SDS011;43493;53.098;6.064;2022-12-01T05:21:11;100.20;;;47.17;;
57663;SDS011;43493;53.098;6.064;2022-12-01T05:23:36;104.27;;;47.57;;
57663;SDS011;43493;53.098;6.064;2022-12-01T05:26:04;102.95;;;48.78;;
57663;SDS011;43493;53.098;6.064;2022-12-01T05:28:31;118.07;;;50.10;;
57663;SDS011;43493;53.098;6.064;2022-12-01T05:30:57;117.40;;;52.38;;
57663;SDS011;43493;53.098;6.064;2022-12-01T05:33:25;100.93;;;48.37;;
57663;SDS011;43493;53.098;6.064;2022-12-01T05:35:52;102.05;;;46.95;;
57663;SDS011;43493;53.098;6.064;2022-12-01T05:38:18;102.63;;;49.37;;
57663;SDS011;43493;53.098;6.064;2022-12-01T05:40:51;100.53;;;47.37;;
57663;SDS011;43493;53.098;6.064;2022-12-01T05:43:18;95.50;;;46.60;;
57663;SDS011;43493;53.098;6.064;2022-12-01T05:45:45;91.13;;;47.00;;
57663;SDS011;43493;53.098;6.064;2022-12-01T05:48:10;95.40;;;46.20;;
57663;SDS011;43493;53.098;6.064;2022-12-01T05:50:36;96.13;;;46.83;;
57663;SDS011;43493;53.098;6.064;2022-12-01T05:53:03;109.97;;;50.57;;
57663;SDS011;43493;53.098;6.064;2022-12-01T05:55:31;104.00;;;50.10;;
57663;SDS011;43493;53.098;6.064;2022-12-01T05:58:00;95.00;;;48.17;;
57663;SDS011;43493;53.098;6.064;2022-12-01T06:00:26;99.47;;;47.77;;
57663;SDS011;43493;53.098;6.064;2022-12-01T06:02:51;103.03;;;49.40;;
57663;SDS011;43493;53.098;6.064;2022-12-01T06:05:17;108.87;;;47.43;;
57663;SDS011;43493;53.098;6.064;2022-12-01T06:07:43;104.83;;;47.90;;
57663;SDS011;43493;53.098;6.064;2022-12-01T06:10:09;94.73;;;47.57;;
57663;SDS011;43493;53.098;6.064;2022-12-01T06:12:35;103.17;;;48.13;;
57663;SDS011;43493;53.098;6.064;2022-12-01T06:15:02;102.90;;;48.50;;
57663;SDS011;43493;53.098;6.064;2022-12-01T06:17:28;113.10;;;50.37;;
57663;SDS011;43493;53.098;6.064;2022-12-01T06:19:54;105.40;;;48.80;;
57663;SDS011;43493;53.098;6.064;2022-12-01T06:22:20;103.10;;;47.77;;
57663;SDS011;43493;53.098;6.064;2022-12-01T06:24:46;111.50;;;49.80;;
57663;SDS011;43493;53.098;6.064;2022-12-01T06:27:11;107.27;;;49.27;;
57663;SDS011;43493;53.098;6.064;2022-12-01T06:29:37;110.47;;;50.30;;
57663;SDS011;43493;53.098;6.064;2022-12-01T06:32:03;106.43;;;48.10;;
57663;SDS011;43493;53.098;6.064;2022-12-01T06:34:29;102.17;;;48.63;;
57663;SDS011;43493;53.098;6.064;2022-12-01T06:36:54;114.13;;;48.97;;
57663;SDS011;43493;53.098;6.064;2022-12-01T06:39:20;124.90;;;52.37;;
57663;SDS011;43493;53.098;6.064;2022-12-01T06:41:46;95.60;;;46.77;;
57663;SDS011;43493;53.098;6.064;2022-12-01T06:44:12;104.50;;;47.40;;
57663;SDS011;43493;53.098;6.064;2022-12-01T06:46:39;97.47;;;46.07;;
57663;SDS011;43493;53.098;6.064;2022-12-01T06:49:05;104.83;;;48.27;;
57663;SDS011;43493;53.098;6.064;2022-12-01T06:51:30;85.80;;;42.30;;
57663;SDS011;43493;53.098;6.064;2022-12-01T06:53:58;76.82;;;40.05;;
57663;SDS011;43493;53.098;6.064;2022-12-01T06:56:24;86.53;;;41.87;;
57663;SDS011;43493;53.098;6.064;2022-12-01T06:58:50;80.57;;;40.03;;
57663;SDS011;43493;53.098;6.064;2022-12-01T07:01:17;85.43;;;43.03;;
57663;SDS011;43493;53.098;6.064;2022-12-01T07:03:46;80.15;;;40.67;;
57663;SDS011;43493;53.098;6.064;2022-12-01T07:06:12;84.82;;;40.97;;
57663;SDS011;43493;53.098;6.064;2022-12-01T07:08:38;76.40;;;39.07;;
57663;SDS011;43493;53.098;6.064;2022-12-01T07:11:05;75.27;;;39.53;;
57663;SDS011;43493;53.098;6.064;2022-12-01T07:13:32;76.07;;;38.92;;
57663;SDS011;43493;53.098;6.064;2022-12-01T07:15:59;88.35;;;41.42;;
57663;SDS011;43493;53.098;6.064;2022-12-01T07:18:28;70.45;;;39.13;;
57663;SDS011;43493;53.098;6.064;2022-12-01T07:20:58;72.30;;;39.80;;
57663;SDS011;43493;53.098;6.064;2022-12-01T07:23:25;72.25;;;39.10;;
57663;SDS011;43493;53.098;6.064;2022-12-01T07:26:01;67.67;;;36.90;;
57663;SDS011;43493;53.098;6.064;2022-12-01T07:28:31;75.38;;;38.55;;
57663;SDS011;43493;53.098;6.064;2022-12-01T07:31:04;70.55;;;36.70;;
57663;SDS011;43493;53.098;6.064;2022-12-01T07:33:30;67.95;;;37.50;;
57663;SDS011;43493;53.098;6.064;2022-12-01T07:35:57;76.28;;;39.90;;
57663;SDS011;43493;53.098;6.064;2022-12-01T07:38:23;66.40;;;35.75;;
57663;SDS011;43493;53.098;6.064;2022-12-01T07:40:49;76.33;;;38.97;;
57663;SDS011;43493;53.098;6.064;2022-12-01T07:43:14;75.27;;;38.57;;
57663;SDS011;43493;53.098;6.064;2022-12-01T07:45:40;73.80;;;37.07;;
57663;SDS011;43493;53.098;6.064;2022-12-01T07:48:06;79.77;;;38.77;;
57663;SDS011;43493;53.098;6.064;2022-12-01T07:50:31;75.00;;;37.37;;
57663;SDS011;43493;53.098;6.064;2022-12-01T07:52:57;74.50;;;37.53;;
57663;SDS011;43493;53.098;6.064;2022-12-01T07:55:23;74.00;;;38.13;;
57663;SDS011;43493;53.098;6.064;2022-12-01T07:57:48;78.37;;;40.87;;
57663;SDS011;43493;53.098;6.064;2022-12-01T08:00:14;79.43;;;37.83;;
57663;SDS011;43493;53.098;6.064;2022-12-01T08:02:40;78.87;;;40.10;;
57663;SDS011;43493;53.098;6.064;2022-12-01T08:05:06;69.22;;;36.72;;
57663;SDS011;43493;53.098;6.064;2022-12-01T08:07:32;76.97;;;41.13;;
57663;SDS011;43493;53.098;6.064;2022-12-01T08:09:58;72.20;;;38.40;;
57663;SDS011;43493;53.098;6.064;2022-12-01T08:12:24;66.53;;;35.53;;
57663;SDS011;43493;53.098;6.064;2022-12-01T08:14:50;70.25;;;37.85;;
57663;SDS011;43493;53.098;6.064;2022-12-01T08:17:16;71.28;;;38.22;;
57663;SDS011;43493;53.098;6.064;2022-12-01T08:19:42;70.67;;;37.80;;
57663;SDS011;43493;53.098;6.064;2022-12-01T08:22:08;73.00;;;37.92;;
57663;SDS011;43493;53.098;6.064;2022-12-01T08:24:34;65.13;;;35.25;;
57663;SDS011;43493;53.098;6.064;2022-12-01T08:27:00;71.10;;;37.67;;
57663;SDS011;43493;53.098;6.064;2022-12-01T08:29:26;63.17;;;34.25;;
57663;SDS011;43493;53.098;6.064;2022-12-01T08:31:52;68.30;;;35.25;;
57663;SDS011;43493;53.098;6.064;2022-12-01T08:34:18;66.15;;;35.40;;
57663;SDS011;43493;53.098;6.064;2022-12-01T08:36:44;67.90;;;36.33;;
57663;SDS011;43493;53.098;6.064;2022-12-01T08:39:10;65.07;;;35.17;;
57663;SDS011;43493;53.098;6.064;2022-12-01T08:41:36;64.72;;;33.10;;
57663;SDS011;43493;53.098;6.064;2022-12-01T08:44:01;72.13;;;35.97;;
57663;SDS011;43493;53.098;6.064;2022-12-01T08:46:29;66.97;;;35.17;;
57663;SDS011;43493;53.098;6.064;2022-12-01T08:48:56;68.15;;;33.50;;
57663;SDS011;43493;53.098;6.064;2022-12-01T08:51:22;76.03;;;34.93;;
57663;SDS011;43493;53.098;6.064;2022-12-01T08:53:48;56.83;;;31.52;;
57663;SDS011;43493;53.098;6.064;2022-12-01T08:56:19;60.00;;;33.70;;
57663;SDS011;43493;53.098;6.064;2022-12-01T08:58:46;56.47;;;30.35;;
57663;SDS011;43493;53.098;6.064;2022-12-01T09:01:13;53.50;;;29.27;;
57663;SDS011;43493;53.098;6.064;2022-12-01T09:03:40;51.65;;;28.20;;
57663;SDS011;43493;53.098;6.064;2022-12-01T09:06:08;53.90;;;29.40;;
57663;SDS011;43493;53.098;6.064;2022-12-01T09:08:41;57.45;;;30.88;;
57663;SDS011;43493;53.098;6.064;2022-12-01T09:11:12;46.90;;;27.27;;
57663;SDS011;43493;53.098;6.064;2022-12-01T09:13:40;43.63;;;25.42;;
57663;SDS011;43493;53.098;6.064;2022-12-01T09:16:10;42.72;;;25.75;;
57663;SDS011;43493;53.098;6.064;2022-12-01T09:18:40;51.05;;;26.83;;
57663;SDS011;43493;53.098;6.064;2022-12-01T09:23:36;38.72;;;22.65;;
57663;SDS011;43493;53.098;6.064;2022-12-01T09:26:01;37.63;;;22.90;;
57663;SDS011;43493;53.098;6.064;2022-12-01T09:28:27;34.50;;;21.40;;
57663;SDS011;43493;53.098;6.064;2022-12-01T09:30:53;35.90;;;20.63;;
57663;SDS011;43493;53.098;6.064;2022-12-01T09:33:18;35.70;;;21.67;;
57663;SDS011;43493;53.098;6.064;2022-12-01T09:35:44;30.43;;;19.20;;
57663;SDS011;43493;53.098;6.064;2022-12-01T09:38:10;30.83;;;19.43;;
57663;SDS011;43493;53.098;6.064;2022-12-01T09:40:37;30.57;;;18.90;;
57663;SDS011;43493;53.098;6.064;2022-12-01T09:43:05;30.08;;;18.50;;
57663;SDS011;43493;53.098;6.064;2022-12-01T09:45:40;26.73;;;17.93;;
57663;SDS011;43493;53.098;6.064;2022-12-01T09:48:12;25.75;;;18.08;;
57663;SDS011;43493;53.098;6.064;2022-12-01T09:51:12;28.70;;;18.40;;
57663;SDS011;43493;53.098;6.064;2022-12-01T09:53:40;24.20;;;17.48;;
57663;SDS011;43493;53.098;6.064;2022-12-01T09:56:11;26.02;;;18.50;;
57663;SDS011;43493;53.098;6.064;2022-12-01T09:58:43;28.95;;;17.10;;
57663;SDS011;43493;53.098;6.064;2022-12-01T10:01:13;23.88;;;17.17;;
57663;SDS011;43493;53.098;6.064;2022-12-01T10:03:43;26.45;;;16.75;;
57663;SDS011;43493;53.098;6.064;2022-12-01T10:06:19;24.75;;;16.65;;
57663;SDS011;43493;53.098;6.064;2022-12-01T10:11:49;23.73;;;16.90;;
57663;SDS011;43493;53.098;6.064;2022-12-01T10:14:19;25.50;;;16.73;;
57663;SDS011;43493;53.098;6.064;2022-12-01T10:16:53;25.38;;;17.67;;
57663;SDS011;43493;53.098;6.064;2022-12-01T10:30:48;21.30;;;15.25;;
57663;SDS011;43493;53.098;6.064;2022-12-01T10:33:19;22.65;;;16.20;;
57663;SDS011;43493;53.098;6.064;2022-12-01T10:35:51;21.85;;;16.10;;
57663;SDS011;43493;53.098;6.064;2022-12-01T10:38:31;21.60;;;15.75;;
57663;SDS011;43493;53.098;6.064;2022-12-01T10:41:01;22.15;;;16.15;;
57663;SDS011;43493;53.098;6.064;2022-12-01T10:43:31;24.73;;;15.30;;
57663;SDS011;43493;53.098;6.064;2022-12-01T10:46:04;22.48;;;16.10;;
57663;SDS011;43493;53.098;6.064;2022-12-01T10:48:50;25.75;;;17.17;;
57663;SDS011;43493;53.098;6.064;2022-12-01T10:51:18;23.58;;;16.75;;
57663;SDS011;43493;53.098;6.064;2022-12-01T10:53:44;23.98;;;16.13;;
57663;SDS011;43493;53.098;6.064;2022-12-01T10:56:14;21.10;;;15.57;;
57663;SDS011;43493;53.098;6.064;2022-12-01T10:58:45;21.17;;;14.87;;
57663;SDS011;43493;53.098;6.064;2022-12-01T11:01:27;24.05;;;15.07;;
57663;SDS011;43493;53.098;6.064;2022-12-01T11:03:59;20.38;;;13.70;;
57663;SDS011;43493;53.098;6.064;2022-12-01T11:06:47;21.90;;;14.10;;
57663;SDS011;43493;53.098;6.064;2022-12-01T11:09:17;18.93;;;13.80;;
57663;SDS011;43493;53.098;6.064;2022-12-01T11:11:44;21.37;;;14.30;;
57663;SDS011;43493;53.098;6.064;2022-12-01T11:14:19;19.38;;;12.82;;
57663;SDS011;43493;53.098;6.064;2022-12-01T11:16:47;16.98;;;12.10;;
57663;SDS011;43493;53.098;6.064;2022-12-01T11:21:58;22.23;;;14.20;;
57663;SDS011;43493;53.098;6.064;2022-12-01T11:24:41;17.70;;;12.90;;
57663;SDS011;43493;53.098;6.064;2022-12-01T11:27:18;20.67;;;14.23;;
57663;SDS011;43493;53.098;6.064;2022-12-01T11:29:47;18.25;;;13.20;;
57663;SDS011;43493;53.098;6.064;2022-12-01T11:32:19;16.77;;;12.93;;
57663;SDS011;43493;53.098;6.064;2022-12-01T11:35:03;20.10;;;13.73;;
57663;SDS011;43493;53.098;6.064;2022-12-01T11:37:38;16.08;;;12.00;;
57663;SDS011;43493;53.098;6.064;2022-12-01T11:40:14;19.97;;;13.20;;
57663;SDS011;43493;53.098;6.064;2022-12-01T11:42:56;20.83;;;13.93;;
57663;SDS011;43493;53.098;6.064;2022-12-01T11:50:59;17.83;;;12.63;;
57663;SDS011;43493;53.098;6.064;2022-12-01T11:53:40;18.73;;;13.80;;
57663;SDS011;43493;53.098;6.064;2022-12-01T11:58:45;18.98;;;13.30;;
57663;SDS011;43493;53.098;6.064;2022-12-01T12:06:28;20.20;;;13.23;;
57663;SDS011;43493;53.098;6.064;2022-12-01T12:09:21;17.57;;;12.00;;
57663;SDS011;43493;53.098;6.064;2022-12-01T12:14:41;18.47;;;13.23;;
57663;SDS011;43493;53.098;6.064;2022-12-01T12:25:54;19.93;;;13.70;;
57663;SDS011;43493;53.098;6.064;2022-12-01T12:28:37;19.27;;;13.50;;
57663;SDS011;43493;53.098;6.064;2022-12-01T12:31:27;19.00;;;13.77;;
57663;SDS011;43493;53.098;6.064;2022-12-01T12:42:34;18.47;;;13.20;;
57663;SDS011;43493;53.098;6.064;2022-12-01T12:45:24;18.67;;;12.73;;
57663;SDS011;43493;53.098;6.064;2022-12-01T12:48:15;19.97;;;12.53;;
57663;SDS011;43493;53.098;6.064;2022-12-01T12:53:21;16.90;;;12.13;;
57663;SDS011;43493;53.098;6.064;2022-12-01T12:55:50;19.53;;;13.57;;
57663;SDS011;43493;53.098;6.064;2022-12-01T13:00:51;19.37;;;13.47;;
57663;SDS011;43493;53.098;6.064;2022-12-01T13:06:05;23.00;;;15.30;;
57663;SDS011;43493;53.098;6.064;2022-12-01T13:08:41;18.97;;;13.37;;
57663;SDS011;43493;53.098;6.064;2022-12-01T13:11:22;20.08;;;13.90;;
57663;SDS011;43493;53.098;6.064;2022-12-01T13:16:49;21.73;;;14.67;;
57663;SDS011;43493;53.098;6.064;2022-12-01T13:19:19;21.27;;;15.43;;
57663;SDS011;43493;53.098;6.064;2022-12-01T13:21:57;19.70;;;14.60;;
57663;SDS011;43493;53.098;6.064;2022-12-01T13:24:26;21.10;;;14.77;;
57663;SDS011;43493;53.098;6.064;2022-12-01T13:26:55;20.07;;;14.43;;
57663;SDS011;43493;53.098;6.064;2022-12-01T13:29:34;19.63;;;13.83;;
57663;SDS011;43493;53.098;6.064;2022-12-01T13:32:02;20.23;;;13.27;;
57663;SDS011;43493;53.098;6.064;2022-12-01T13:36:56;21.87;;;16.50;;
57663;SDS011;43493;53.098;6.064;2022-12-01T13:39:23;22.80;;;16.13;;
57663;SDS011;43493;53.098;6.064;2022-12-01T13:41:59;17.30;;;12.77;;
57663;SDS011;43493;53.098;6.064;2022-12-01T13:44:36;23.83;;;15.37;;
57663;SDS011;43493;53.098;6.064;2022-12-01T13:57:33;16.63;;;12.53;;
57663;SDS011;43493;53.098;6.064;2022-12-01T14:13:46;23.27;;;15.87;;
57663;SDS011;43493;53.098;6.064;2022-12-01T14:16:16;21.23;;;14.35;;
57663;SDS011;43493;53.098;6.064;2022-12-01T14:18:43;17.67;;;12.77;;
57663;SDS011;43493;53.098;6.064;2022-12-01T14:21:40;22.30;;;15.93;;
57663;SDS011;43493;53.098;6.064;2022-12-01T14:24:17;18.97;;;13.53;;
57663;SDS011;43493;53.098;6.064;2022-12-01T14:26:51;21.67;;;13.73;;
57663;SDS011;43493;53.098;6.064;2022-12-01T14:34:40;20.90;;;15.27;;
57663;SDS011;43493;53.098;6.064;2022-12-01T14:37:16;22.57;;;16.70;;
57663;SDS011;43493;53.098;6.064;2022-12-01T14:42:47;31.50;;;21.03;;
57663;SDS011;43493;53.098;6.064;2022-12-01T14:45:38;31.43;;;22.07;;
57663;SDS011;43493;53.098;6.064;2022-12-01T14:48:31;34.03;;;23.03;;
57663;SDS011;43493;53.098;6.064;2022-12-01T14:51:08;35.93;;;23.80;;
57663;SDS011;43493;53.098;6.064;2022-12-01T14:53:43;38.90;;;26.70;;
57663;SDS011;43493;53.098;6.064;2022-12-01T14:56:16;36.63;;;25.87;;
57663;SDS011;43493;53.098;6.064;2022-12-01T14:58:57;44.73;;;28.73;;
57663;SDS011;43493;53.098;6.064;2022-12-01T15:01:34;42.77;;;27.60;;
57663;SDS011;43493;53.098;6.064;2022-12-01T15:04:02;40.27;;;26.83;;
57663;SDS011;43493;53.098;6.064;2022-12-01T15:06:30;41.33;;;28.13;;
57663;SDS011;43493;53.098;6.064;2022-12-01T15:11:34;45.10;;;28.27;;
57663;SDS011;43493;53.098;6.064;2022-12-01T15:14:16;39.90;;;27.40;;
57663;SDS011;43493;53.098;6.064;2022-12-01T15:17:25;44.63;;;29.67;;
57663;SDS011;43493;53.098;6.064;2022-12-01T15:19:51;39.57;;;28.47;;
57663;SDS011;43493;53.098;6.064;2022-12-01T15:22:17;49.53;;;30.77;;
57663;SDS011;43493;53.098;6.064;2022-12-01T15:24:43;48.37;;;31.07;;
57663;SDS011;43493;53.098;6.064;2022-12-01T15:27:31;48.97;;;30.77;;
57663;SDS011;43493;53.098;6.064;2022-12-01T15:29:57;50.40;;;31.13;;
57663;SDS011;43493;53.098;6.064;2022-12-01T15:32:28;51.53;;;31.50;;
57663;SDS011;43493;53.098;6.064;2022-12-01T15:34:56;49.30;;;30.77;;
57663;SDS011;43493;53.098;6.064;2022-12-01T15:37:26;50.87;;;32.63;;
57663;SDS011;43493;53.098;6.064;2022-12-01T15:39:59;50.78;;;32.40;;
57663;SDS011;43493;53.098;6.064;2022-12-01T15:42:35;48.08;;;31.05;;
57663;SDS011;43493;53.098;6.064;2022-12-01T15:45:17;47.53;;;30.13;;
57663;SDS011;43493;53.098;6.064;2022-12-01T15:47:47;46.83;;;30.65;;
57663;SDS011;43493;53.098;6.064;2022-12-01T15:50:28;46.10;;;30.73;;
57663;SDS011;43493;53.098;6.064;2022-12-01T15:53:02;42.73;;;28.93;;
57663;SDS011;43493;53.098;6.064;2022-12-01T15:55:31;49.05;;;29.52;;
57663;SDS011;43493;53.098;6.064;2022-12-01T15:57:59;45.05;;;30.58;;
57663;SDS011;43493;53.098;6.064;2022-12-01T16:00:25;46.28;;;31.33;;
57663;SDS011;43493;53.098;6.064;2022-12-01T16:02:53;44.17;;;29.23;;
57663;SDS011;43493;53.098;6.064;2022-12-01T16:05:27;45.72;;;30.35;;
57663;SDS011;43493;53.098;6.064;2022-12-01T16:07:55;47.07;;;31.17;;
57663;SDS011;43493;53.098;6.064;2022-12-01T16:10:25;49.73;;;31.57;;
57663;SDS011;43493;53.098;6.064;2022-12-01T16:13:33;51.57;;;33.40;;
57663;SDS011;43493;53.098;6.064;2022-12-01T16:15:58;50.13;;;34.17;;
57663;SDS011;43493;53.098;6.064;2022-12-01T16:18:30;47.27;;;31.43;;
57663;SDS011;43493;53.098;6.064;2022-12-01T16:21:01;46.17;;;31.38;;
57663;SDS011;43493;53.098;6.064;2022-12-01T16:23:27;48.22;;;30.63;;
57663;SDS011;43493;53.098;6.064;2022-12-01T16:25:54;44.90;;;31.20;;
57663;SDS011;43493;53.098;6.064;2022-12-01T16:28:21;49.93;;;32.57;;
57663;SDS011;43493;53.098;6.064;2022-12-01T16:30:47;48.92;;;32.42;;
57663;SDS011;43493;53.098;6.064;2022-12-01T16:33:14;50.13;;;33.50;;
57663;SDS011;43493;53.098;6.064;2022-12-01T16:35:41;50.55;;;32.38;;
57663;SDS011;43493;53.098;6.064;2022-12-01T16:38:15;50.80;;;33.53;;
57663;SDS011;43493;53.098;6.064;2022-12-01T16:40:54;52.50;;;33.47;;
57663;SDS011;43493;53.098;6.064;2022-12-01T16:43:23;49.90;;;32.40;;
57663;SDS011;43493;53.098;6.064;2022-12-01T16:45:50;48.95;;;33.33;;
57663;SDS011;43493;53.098;6.064;2022-12-01T16:48:22;48.08;;;32.03;;
57663;SDS011;43493;53.098;6.064;2022-12-01T16:50:49;53.53;;;33.57;;
57663;SDS011;43493;53.098;6.064;2022-12-01T16:53:16;50.83;;;33.80;;
57663;SDS011;43493;53.098;6.064;2022-12-01T16:58:10;57.67;;;37.50;;
57663;SDS011;43493;53.098;6.064;2022-12-01T17:00:36;57.20;;;37.27;;